首页
METAR-TAF:

METAR-TAF

机场 :

大瀑布城, 蒙大拿州, 美国

纬度: 47-30N, 经度: 111-11W, 海拔: 1075米

当前天气观测

该预报发布于1小时和9分钟前的21:58 UTC
风速9节,风向北转东北
温度 20°C
湿度 46%
气压 1019 hPa
能見度: 16.1公里
散云层高于7500英尺
散云层高于9000英尺

METAR: KGFA 272158Z AUTO 02009KT 10SM SCT075 SCT090 20/08 A3008 RMK AO2 SLP188 T02030081 $

时间: 17:07 (23:07 UTC)

预报

该预报发布于3小时和50分钟前的19:17 UTC
预报有效从27日的 19点(UTC)到 29日的 01点(UTC)
风速9节,风向西转西北
能见度10公里或以上
多云层高于8000英尺
短暂存在
从 27日的 19点(UTC)到 28日的 01点(UTC)
风速12节,风向西北,有时为18节阵风
成为
从 28日的 04点(UTC)到 28日的 05点(UTC)
风速9节,风向
能见度10公里或以上
多云层高于8000英尺
成为
从 28日的 17点(UTC)到 28日的 18点(UTC)
风速9节,风向
能见度10公里或以上
少量云层高于20000英尺

TAF: KGFA 271917Z 2719/2901 30009KT 9999 BKN080 QNH3006INS TEMPO 2719/2801 32012G18KT BECMG 2804/2805 09009KT 9999 BKN080 QNH3023INS BECMG 2817/2818 09009KT 9999 FEW200 QNH3012INS TX21/2722Z TN07/2812Z

超过4000个机场的气象观测和天气预报(METAR&TAF报告)。

可查询的气象台以黄色和红色小点在地图上表示。

将鼠标移到小点上方,可查看气象台名称。

然后点击查看天气观测和预报。

如需切换地图:点击带黑十字的绿色按钮放大地图;点击带横线的绿色按钮缩小地图;或者点击绿色箭头查看邻近地区的地图。


METAR-TAF: